Time;durP1;ratioP1;P1;durP2;ratioP2;P2;SDS_P1;SDS_P2;PMS_P1;PMS_P2;Temp;Humidity;BMP_temperature;BMP_pressure;BME280_temperature;BME280_humidity;BME280_pressure;Samples;Min_cycle;Max_cycle;Signal;HPM_P1;HPM_P2
2023/04/03 00:00:22;;;;;;;6.53;2.40;;;0.20;99.90;;;;;;5058014;28;20209;-78
2023/04/03 00:02:49;;;;;;;6.67;2.30;;;0.20;99.90;;;;;;5069938;28;20225;-79
2023/04/03 00:05:17;;;;;;;5.07;1.90;;;0.20;99.90;;;;;;5073462;28;20197;-79
2023/04/03 00:07:44;;;;;;;7.63;2.17;;;0.10;99.90;;;;;;5061181;28;20223;-77
2023/04/03 00:10:13;;;;;;;5.20;2.30;;;-0.10;99.90;;;;;;5073534;28;20652;-79
2023/04/03 00:12:40;;;;;;;8.50;2.17;;;-0.20;99.90;;;;;;5056800;28;20223;-78
2023/04/03 00:15:08;;;;;;;5.50;1.87;;;-0.10;99.90;;;;;;5075305;28;20661;-79
2023/04/03 00:17:35;;;;;;;4.77;1.97;;;0.00;99.90;;;;;;5057225;28;20225;-79
2023/04/03 00:20:02;;;;;;;5.03;1.63;;;0.10;99.90;;;;;;5075375;28;20557;-79
2023/04/03 00:22:30;;;;;;;3.80;1.63;;;0.00;99.90;;;;;;5076237;28;20253;-78
2023/04/03 00:24:57;;;;;;;4.73;1.90;;;0.00;99.90;;;;;;5062786;28;20205;-78
2023/04/03 00:27:24;;;;;;;1.90;1.57;;;0.00;99.90;;;;;;5071691;28;20218;-79
2023/04/03 00:29:50;;;;;;;3.93;1.93;;;-0.10;99.90;;;;;;5076082;28;20793;-79
2023/04/03 00:32:17;;;;;;;5.40;1.80;;;-0.30;99.90;;;;;;5061514;28;20574;-78
2023/04/03 00:34:44;;;;;;;5.57;2.00;;;-0.50;99.90;;;;;;5055480;28;20716;-78
2023/04/03 00:37:11;;;;;;;2.93;1.73;;;-0.60;99.90;;;;;;5057157;28;20222;-78
2023/04/03 00:39:40;;;;;;;5.10;2.00;;;-0.60;99.90;;;;;;5070798;28;20226;-78
2023/04/03 00:42:07;;;;;;;5.97;1.80;;;-0.60;99.90;;;;;;5064249;28;20245;-79
2023/04/03 00:45:11;;;;;;;3.47;1.73;;;-0.60;99.90;;;;;;5075508;28;20213;-78
2023/04/03 00:47:40;;;;;;;5.33;2.40;;;-0.70;99.90;;;;;;5073295;28;20222;-78
2023/04/03 00:50:08;;;;;;;4.23;1.67;;;-0.70;99.90;;;;;;5076285;28;20296;-79
2023/04/03 00:52:35;;;;;;;2.80;1.70;;;-0.60;99.90;;;;;;5076307;28;20261;-79
2023/04/03 00:55:07;;;;;;;4.27;1.60;;;-0.60;99.90;;;;;;5061776;28;20205;-78
2023/04/03 00:57:34;;;;;;;4.77;1.83;;;-0.70;99.90;;;;;;5056199;28;20234;-78
2023/04/03 01:00:06;;;;;;;4.40;1.80;;;-0.70;99.90;;;;;;5055660;28;20298;-79
2023/04/03 01:02:33;;;;;;;3.20;1.97;;;-0.70;99.90;;;;;;5064225;28;20230;-79
2023/04/03 01:05:00;;;;;;;6.17;1.90;;;-0.70;99.90;;;;;;5054138;28;20203;-78
2023/04/03 01:07:30;;;;;;;3.20;2.00;;;-0.70;99.90;;;;;;5062735;28;20286;-79
2023/04/03 01:10:00;;;;;;;6.13;1.83;;;-0.70;99.90;;;;;;5054394;28;20214;-79
2023/04/03 01:12:30;;;;;;;3.40;1.87;;;-0.80;99.90;;;;;;5053878;28;20226;-78
2023/04/03 01:14:58;;;;;;;2.93;1.43;;;-0.90;99.90;;;;;;5054080;28;20638;-79
2023/04/03 01:17:31;;;;;;;3.90;1.67;;;-1.00;99.90;;;;;;5053120;28;20213;-79
2023/04/03 01:20:16;;;;;;;3.00;1.70;;;-1.20;99.90;;;;;;5053950;28;20203;-80
2023/04/03 01:22:50;;;;;;;4.00;1.77;;;-1.20;99.90;;;;;;5052938;28;20310;-77
2023/04/03 01:25:17;;;;;;;3.33;1.77;;;-1.30;99.90;;;;;;5054202;28;20191;-78
2023/04/03 01:27:45;;;;;;;2.70;1.60;;;-1.40;99.90;;;;;;5054023;28;20700;-77
2023/04/03 01:30:16;;;;;;;4.60;2.20;;;-1.30;99.90;;;;;;5057393;28;20678;-77
2023/04/03 01:32:44;;;;;;;4.23;2.00;;;-1.20;99.90;;;;;;5073960;28;20588;-77
2023/04/03 01:35:12;;;;;;;5.73;2.17;;;-1.30;99.90;;;;;;5073160;28;20204;-77
2023/04/03 01:37:39;;;;;;;4.10;2.10;;;-1.20;99.90;;;;;;5072744;28;20209;-78
2023/04/03 01:40:07;;;;;;;4.13;1.97;;;-1.10;99.90;;;;;;5060526;28;20211;-77
2023/04/03 01:42:34;;;;;;;3.00;2.00;;;-1.20;99.90;;;;;;5054637;28;20223;-79
2023/04/03 01:45:01;;;;;;;4.47;1.83;;;-1.30;99.90;;;;;;5056367;28;20286;-79
2023/04/03 01:47:28;;;;;;;6.03;1.77;;;-1.40;99.90;;;;;;5056980;28;20233;-78
2023/04/03 01:49:56;;;;;;;3.57;1.90;;;-1.40;99.90;;;;;;5075838;28;20633;-78
2023/04/03 01:52:23;;;;;;;6.97;2.43;;;-1.40;99.90;;;;;;5074078;28;20222;-78
2023/04/03 01:54:50;;;;;;;5.63;1.87;;;-1.30;99.90;;;;;;5064749;28;20199;-78
2023/04/03 01:57:17;;;;;;;6.50;2.27;;;-1.30;99.90;;;;;;5064100;28;20191;-78
2023/04/03 01:59:44;;;;;;;3.77;2.00;;;-1.30;99.90;;;;;;5058936;28;20203;-78
2023/04/03 02:02:12;;;;;;;3.93;1.73;;;-1.40;99.90;;;;;;5065797;28;20219;-78
2023/04/03 02:04:39;;;;;;;3.40;1.90;;;-1.30;99.90;;;;;;5056939;28;20259;-78
2023/04/03 02:07:07;;;;;;;2.60;1.93;;;-1.30;99.90;;;;;;5068735;28;20198;-79
2023/04/03 02:09:34;;;;;;;4.40;2.07;;;-1.30;99.90;;;;;;5068031;28;20215;-79
2023/04/03 02:12:01;;;;;;;2.70;1.60;;;-1.30;99.90;;;;;;5065279;28;20618;-78
2023/04/03 02:14:28;;;;;;;6.50;2.00;;;-1.30;99.90;;;;;;5070363;28;20234;-79
2023/04/03 02:16:55;;;;;;;5.27;2.23;;;-1.30;99.90;;;;;;5056068;28;20211;-78
2023/04/03 02:19:22;;;;;;;4.07;1.63;;;-1.30;99.90;;;;;;5066889;28;20294;-79
2023/04/03 02:21:49;;;;;;;5.50;2.17;;;-1.30;99.90;;;;;;5067001;28;20289;-79
2023/04/03 02:24:17;;;;;;;2.60;1.90;;;-1.30;99.90;;;;;;5080084;28;20655;-78
2023/04/03 02:26:44;;;;;;;2.93;2.00;;;-1.30;99.90;;;;;;5078467;28;20202;-78
2023/04/03 02:29:10;;;;;;;6.57;1.97;;;-1.30;99.90;;;;;;5065500;28;20274;-79
2023/04/03 02:31:37;;;;;;;4.27;1.57;;;-1.30;99.90;;;;;;5063979;28;20277;-78
2023/04/03 02:34:04;;;;;;;2.00;1.50;;;-1.30;99.90;;;;;;5078740;28;20249;-78
2023/04/03 02:36:31;;;;;;;6.93;1.87;;;-1.30;99.90;;;;;;5068735;28;20203;-78
2023/04/03 02:38:58;;;;;;;5.27;2.13;;;-1.30;99.90;;;;;;5065821;28;20199;-78
2023/04/03 02:41:33;;;;;;;2.73;1.37;;;-1.30;99.90;;;;;;5075761;28;20653;-78
2023/04/03 02:44:00;;;;;;;5.57;2.00;;;-1.40;99.90;;;;;;5064572;28;20219;-79
2023/04/03 02:46:26;;;;;;;3.07;1.20;;;-1.50;99.90;;;;;;5059275;28;20664;-78
2023/04/03 02:48:53;;;;;;;3.83;1.97;;;-1.60;99.90;;;;;;5059741;28;20262;-78
2023/04/03 02:51:20;;;;;;;2.57;1.47;;;-1.60;99.90;;;;;;5060379;28;20274;-79
2023/04/03 02:53:47;;;;;;;5.40;1.77;;;-1.60;99.90;;;;;;5066178;28;20685;-78
2023/04/03 02:56:14;;;;;;;2.07;1.23;;;-1.60;99.90;;;;;;5062102;28;20205;-82
2023/04/03 02:58:42;;;;;;;3.07;1.80;;;-1.70;99.90;;;;;;5078273;28;20190;-78
2023/04/03 03:01:09;;;;;;;4.63;1.60;;;-1.70;99.90;;;;;;5081020;28;20281;-78
2023/04/03 03:03:36;;;;;;;3.40;1.80;;;-1.80;99.90;;;;;;5060412;28;20306;-79
2023/04/03 03:06:04;;;;;;;3.53;1.77;;;-1.80;99.90;;;;;;5067236;28;20266;-78
2023/04/03 03:08:31;;;;;;;4.00;1.30;;;-1.70;99.90;;;;;;5073653;28;20273;-79
2023/04/03 03:10:57;;;;;;;5.50;2.17;;;-1.80;99.90;;;;;;5060763;28;20211;-78
2023/04/03 03:13:25;;;;;;;4.37;1.60;;;-1.90;99.90;;;;;;5063680;28;20218;-79
2023/04/03 03:15:53;;;;;;;2.90;1.43;;;-2.00;99.90;;;;;;5061382;28;20195;-78
2023/04/03 03:18:20;;;;;;;2.67;1.57;;;-1.90;99.90;;;;;;5061446;28;20207;-78
2023/04/03 03:20:47;;;;;;;3.30;1.90;;;-1.90;99.90;;;;;;5058807;28;20199;-78
2023/04/03 03:23:14;;;;;;;3.23;1.43;;;-1.80;99.90;;;;;;5058213;28;20238;-78
2023/04/03 03:25:41;;;;;;;5.23;1.90;;;-1.80;99.90;;;;;;5058570;28;20206;-78
2023/04/03 03:28:08;;;;;;;4.23;2.10;;;-1.80;99.90;;;;;;5056904;28;20221;-78
2023/04/03 03:30:35;;;;;;;2.10;1.50;;;-1.70;99.90;;;;;;5057876;28;20680;-79
2023/04/03 03:33:04;;;;;;;3.27;1.60;;;-1.70;99.90;;;;;;5060091;28;20214;-78
2023/04/03 03:35:30;;;;;;;5.87;3.40;;;-1.70;99.90;;;;;;5059431;28;20669;-77
2023/04/03 03:37:57;;;;;;;8.43;2.60;;;-1.60;99.90;;;;;;5058853;28;20211;-79
2023/04/03 03:40:24;;;;;;;3.03;2.03;;;-1.70;99.90;;;;;;5058211;28;20203;-78
2023/04/03 03:42:51;;;;;;;3.77;1.60;;;-1.80;99.90;;;;;;5060085;28;20329;-78
2023/04/03 03:45:18;;;;;;;3.90;1.70;;;-1.80;99.90;;;;;;5057962;28;20211;-77
2023/04/03 03:47:45;;;;;;;5.13;2.17;;;-1.70;99.90;;;;;;5057605;28;20218;-77
2023/04/03 03:50:13;;;;;;;4.43;1.60;;;-1.80;99.90;;;;;;5057199;28;20268;-78
2023/04/03 03:52:40;;;;;;;3.70;1.60;;;-1.80;99.90;;;;;;5057850;28;20218;-79
2023/04/03 03:55:07;;;;;;;3.80;2.00;;;-1.70;99.90;;;;;;5057384;28;20543;-78
2023/04/03 03:57:34;;;;;;;3.90;1.43;;;-1.60;99.90;;;;;;5057472;28;20269;-78
2023/04/03 04:00:01;;;;;;;4.20;1.60;;;-1.70;99.90;;;;;;5058099;28;20196;-78
2023/04/03 04:02:28;;;;;;;2.40;1.73;;;-2.00;99.90;;;;;;5058661;28;20233;-78
2023/04/03 04:04:55;;;;;;;5.07;1.60;;;-2.30;99.90;;;;;;5059534;28;20199;-78
2023/04/03 04:07:23;;;;;;;3.97;1.90;;;-2.40;99.90;;;;;;5059354;28;20198;-77
2023/04/03 04:09:50;;;;;;;5.47;2.23;;;-2.40;99.90;;;;;;5059142;28;20314;-77
2023/04/03 04:12:17;;;;;;;4.47;1.73;;;-2.30;99.90;;;;;;5059923;28;20626;-77
2023/04/03 04:14:46;;;;;;;6.80;2.27;;;-2.30;99.90;;;;;;5060133;28;20560;-77
2023/04/03 04:17:13;;;;;;;4.13;1.70;;;-2.30;99.90;;;;;;5056566;28;20211;-78
2023/04/03 04:19:40;;;;;;;10.43;2.40;;;-2.30;99.90;;;;;;5056234;28;20213;-78
2023/04/03 04:22:07;;;;;;;4.37;1.73;;;-2.30;99.90;;;;;;5056538;28;20210;-79
2023/04/03 04:24:35;;;;;;;3.90;1.90;;;-2.40;99.90;;;;;;5055875;28;20226;-78
2023/04/03 04:27:02;;;;;;;3.93;2.10;;;-2.40;99.90;;;;;;5056564;28;20237;-78
2023/04/03 04:29:28;;;;;;;6.13;2.20;;;-2.40;99.90;;;;;;5055781;28;20681;-78
2023/04/03 04:31:55;;;;;;;4.93;1.90;;;-2.30;99.90;;;;;;5073882;28;20194;-79
2023/04/03 04:34:22;;;;;;;2.83;1.63;;;-2.20;99.90;;;;;;5060955;28;20641;-79
2023/04/03 04:36:49;;;;;;;7.97;1.93;;;-2.20;99.90;;;;;;5072427;28;20202;-79
2023/04/03 04:39:16;;;;;;;4.67;1.70;;;-2.20;99.90;;;;;;5065110;28;20265;-78
2023/04/03 04:41:44;;;;;;;4.97;1.87;;;-2.30;99.90;;;;;;5055690;28;20199;-79
2023/04/03 04:44:11;;;;;;;3.67;1.60;;;-2.30;99.90;;;;;;5073632;28;20738;-78
2023/04/03 04:46:38;;;;;;;3.43;1.60;;;-2.30;99.90;;;;;;5074503;28;20230;-79
2023/04/03 04:49:05;;;;;;;4.60;1.83;;;-2.40;99.90;;;;;;5074983;28;20318;-79
2023/04/03 04:51:32;;;;;;;4.33;2.13;;;-2.30;99.90;;;;;;5072506;28;20250;-78
2023/04/03 04:53:59;;;;;;;6.73;1.73;;;-2.40;99.90;;;;;;5072549;28;20222;-79
2023/04/03 04:56:26;;;;;;;4.90;2.53;;;-2.30;99.90;;;;;;5072270;28;20238;-78
2023/04/03 04:58:54;;;;;;;4.83;1.63;;;-2.20;99.90;;;;;;5073015;28;20256;-79
2023/04/03 05:01:21;;;;;;;4.23;1.90;;;-2.40;99.90;;;;;;5074335;28;20212;-78
2023/04/03 05:03:48;;;;;;;4.53;1.70;;;-2.30;99.90;;;;;;5077466;28;20718;-80
2023/04/03 05:06:15;;;;;;;7.30;2.00;;;-1.90;99.90;;;;;;5069049;28;20604;-80
2023/04/03 05:08:42;;;;;;;4.47;1.70;;;-1.50;99.90;;;;;;5061190;28;20226;-79
2023/04/03 05:11:09;;;;;;;6.13;1.50;;;-0.30;99.90;;;;;;5060910;28;20208;-80
2023/04/03 05:13:35;;;;;;;7.13;1.87;;;0.00;99.90;;;;;;5059238;28;20716;-79
2023/04/03 05:16:04;;;;;;;5.60;1.83;;;0.90;99.90;;;;;;5078141;28;20210;-79
2023/04/03 05:18:31;;;;;;;4.07;1.67;;;1.00;99.90;;;;;;5078626;28;20727;-80
2023/04/03 05:20:58;;;;;;;3.00;1.77;;;0.70;99.90;;;;;;5079363;28;20556;-80
2023/04/03 05:23:25;;;;;;;4.23;1.57;;;0.60;99.90;;;;;;5077819;28;20230;-79
2023/04/03 05:25:53;;;;;;;9.30;2.00;;;1.20;99.90;;;;;;5077765;28;20252;-80
2023/04/03 05:28:20;;;;;;;3.87;1.80;;;1.00;99.90;;;;;;5075864;28;20210;-80
2023/04/03 05:30:54;;;;;;;2.63;1.50;;;1.70;99.90;;;;;;5057706;28;20210;-79
2023/04/03 05:33:22;;;;;;;4.97;1.50;;;1.90;99.90;;;;;;5056341;28;20233;-80
2023/04/03 05:35:49;;;;;;;3.47;1.77;;;1.20;99.90;;;;;;5068241;28;20651;-80
2023/04/03 05:38:16;;;;;;;3.87;1.73;;;0.70;99.90;;;;;;5056815;28;20199;-80
2023/04/03 05:40:43;;;;;;;2.97;1.80;;;0.30;99.90;;;;;;5065466;28;20194;-80
2023/04/03 05:43:10;;;;;;;2.37;1.43;;;0.10;99.90;;;;;;5057012;28;20712;-78
2023/04/03 05:45:37;;;;;;;2.67;1.57;;;0.60;99.90;;;;;;5055988;28;20211;-79
2023/04/03 05:48:04;;;;;;;6.63;1.80;;;1.20;99.90;;;;;;5055338;28;20213;-79
2023/04/03 05:50:32;;;;;;;5.10;1.90;;;1.80;99.90;;;;;;5054411;28;20611;-80
2023/04/03 05:53:01;;;;;;;6.23;2.00;;;1.80;99.90;;;;;;5054874;28;20592;-79
2023/04/03 05:55:27;;;;;;;4.23;1.70;;;1.10;99.90;;;;;;5058632;28;20302;-78
2023/04/03 05:57:54;;;;;;;5.33;1.80;;;0.70;99.90;;;;;;5060490;28;20241;-78
2023/04/03 06:00:22;;;;;;;5.87;1.80;;;0.40;99.90;;;;;;5060415;28;20197;-79
2023/04/03 06:02:49;;;;;;;3.30;1.50;;;0.40;99.90;;;;;;5060652;28;20227;-79
2023/04/03 06:05:16;;;;;;;4.67;1.47;;;0.80;99.90;;;;;;5059586;28;20207;-79
2023/04/03 06:07:44;;;;;;;6.77;1.87;;;1.50;99.90;;;;;;5057776;28;20230;-78
2023/04/03 06:10:12;;;;;;;4.30;1.70;;;1.60;99.90;;;;;;5059047;28;20298;-80
2023/04/03 06:12:40;;;;;;;5.07;1.70;;;1.60;99.90;;;;;;5059612;28;20223;-80
2023/04/03 06:15:09;;;;;;;8.17;2.00;;;1.90;99.90;;;;;;5068649;28;20222;-78
2023/04/03 06:17:37;;;;;;;4.67;2.03;;;2.50;99.90;;;;;;5063860;28;20199;-80
2023/04/03 06:20:04;;;;;;;5.07;2.00;;;2.40;99.90;;;;;;5071928;28;20222;-79
2023/04/03 06:22:31;;;;;;;6.20;2.20;;;2.50;99.90;;;;;;5080653;28;20253;-79
2023/04/03 06:24:59;;;;;;;4.57;2.37;;;2.30;99.90;;;;;;5064260;28;20207;-79
2023/04/03 06:27:26;;;;;;;4.93;1.90;;;2.80;99.90;;;;;;5058586;28;20207;-79
2023/04/03 06:29:53;;;;;;;2.73;1.57;;;2.70;99.90;;;;;;5057754;28;20584;-79
2023/04/03 06:32:20;;;;;;;2.83;1.53;;;2.80;99.90;;;;;;5058679;28;20665;-79
2023/04/03 06:34:47;;;;;;;5.03;1.97;;;3.10;99.90;;;;;;5060277;28;20222;-80
2023/04/03 06:37:17;;;;;;;6.83;1.70;;;3.30;99.90;;;;;;5061137;28;20255;-80
2023/04/03 06:39:45;;;;;;;8.77;1.70;;;3.30;99.90;;;;;;5075826;28;20237;-80
2023/04/03 06:42:13;;;;;;;4.30;1.80;;;3.40;99.90;;;;;;5081699;28;20209;-80
2023/04/03 06:44:40;;;;;;;6.03;1.97;;;2.70;99.90;;;;;;5081638;28;20207;-80
2023/04/03 06:47:08;;;;;;;3.07;1.70;;;2.70;99.90;;;;;;5080580;28;20210;-79
2023/04/03 06:49:36;;;;;;;5.87;1.90;;;3.20;99.90;;;;;;5081523;28;20684;-79
2023/04/03 06:52:04;;;;;;;6.17;1.87;;;2.90;99.90;;;;;;5080555;28;20205;-79
2023/04/03 06:54:31;;;;;;;3.37;1.70;;;2.80;99.90;;;;;;5068022;28;20227;-80
2023/04/03 06:56:58;;;;;;;4.13;1.80;;;2.80;99.90;;;;;;5069451;28;20198;-80
2023/04/03 06:59:26;;;;;;;8.83;2.20;;;3.00;99.90;;;;;;5076784;28;20252;-80
2023/04/03 07:01:53;;;;;;;6.53;2.17;;;2.70;99.90;;;;;;5072672;28;20263;-80
2023/04/03 07:04:20;;;;;;;4.40;2.10;;;2.50;99.90;;;;;;5058687;28;20602;-79
2023/04/03 07:06:47;;;;;;;5.50;1.90;;;2.80;99.90;;;;;;5058189;28;20660;-80
2023/04/03 07:09:15;;;;;;;4.63;2.40;;;2.90;99.90;;;;;;5058984;28;20219;-80
2023/04/03 07:11:42;;;;;;;7.87;2.30;;;2.50;99.90;;;;;;5057711;28;20217;-80
2023/04/03 07:14:09;;;;;;;4.93;2.13;;;2.90;99.90;;;;;;5057858;28;20226;-80
2023/04/03 07:16:37;;;;;;;6.63;2.50;;;2.40;99.90;;;;;;5060188;28;20214;-79
2023/04/03 07:19:04;;;;;;;5.87;2.37;;;2.30;99.90;;;;;;5059676;28;20199;-80
2023/04/03 07:21:31;;;;;;;5.03;2.10;;;1.80;99.90;;;;;;5060035;28;20213;-79
2023/04/03 07:23:58;;;;;;;6.13;2.47;;;2.30;99.90;;;;;;5060438;28;20322;-79
2023/04/03 07:26:25;;;;;;;6.27;2.30;;;2.90;99.90;;;;;;5065287;28;20209;-80
2023/04/03 07:28:52;;;;;;;9.63;2.23;;;3.00;99.90;;;;;;5058570;28;20636;-79
2023/04/03 07:31:19;;;;;;;4.50;1.83;;;2.80;99.90;;;;;;5074317;28;20582;-80
2023/04/03 07:33:47;;;;;;;5.23;2.10;;;3.00;99.90;;;;;;5058185;28;20692;-79
2023/04/03 07:36:18;;;;;;;6.93;2.43;;;2.60;99.90;;;;;;5070538;28;20642;-80
2023/04/03 07:38:45;;;;;;;5.73;2.07;;;3.70;99.90;;;;;;5078827;28;20652;-79
2023/04/03 07:41:14;;;;;;;7.80;2.20;;;3.70;99.90;;;;;;5078190;28;20202;-79
2023/04/03 07:43:42;;;;;;;4.80;2.20;;;3.10;99.90;;;;;;5077001;28;20254;-79
2023/04/03 07:46:08;;;;;;;6.57;2.40;;;4.10;99.90;;;;;;5076068;28;20205;-79
2023/04/03 07:48:35;;;;;;;6.43;2.10;;;4.80;99.90;;;;;;5076453;28;20293;-79
2023/04/03 07:51:05;;;;;;;5.60;2.50;;;4.30;99.90;;;;;;5077252;28;20229;-80
2023/04/03 07:53:32;;;;;;;4.83;2.13;;;4.00;99.90;;;;;;5075188;28;20318;-80
2023/04/03 07:56:01;;;;;;;5.23;2.00;;;3.40;99.90;;;;;;5057376;28;20203;-80
2023/04/03 07:58:28;;;;;;;4.57;1.90;;;4.40;99.90;;;;;;5056221;28;20199;-80
2023/04/03 08:00:54;;;;;;;6.93;3.20;;;4.90;99.90;;;;;;5057704;28;20202;-79
2023/04/03 08:03:22;;;;;;;7.93;2.17;;;4.10;99.90;;;;;;5057104;28;20222;-79
2023/04/03 08:05:50;;;;;;;6.70;1.80;;;4.50;99.90;;;;;;5062419;28;20206;-79
2023/04/03 08:08:21;;;;;;;5.37;1.97;;;4.70;99.90;;;;;;5073796;28;20222;-79
2023/04/03 08:10:51;;;;;;;7.20;2.03;;;4.90;99.90;;;;;;5059910;28;20219;-78
2023/04/03 08:13:17;;;;;;;3.60;1.50;;;4.60;99.90;;;;;;5056743;28;20223;-80
2023/04/03 08:15:45;;;;;;;3.00;2.30;;;4.30;99.90;;;;;;5074195;28;20206;-78
2023/04/03 08:18:11;;;;;;;4.20;1.57;;;4.50;99.90;;;;;;5078465;28;20197;-80
2023/04/03 08:20:40;;;;;;;3.93;1.40;;;4.60;99.90;;;;;;5078144;28;20270;-80
2023/04/03 08:23:07;;;;;;;4.50;1.60;;;4.50;99.90;;;;;;5079692;28;20230;-79
2023/04/03 08:25:38;;;;;;;4.17;1.50;;;4.60;99.90;;;;;;5059693;28;20202;-79
2023/04/03 08:28:05;;;;;;;3.93;1.67;;;4.50;99.90;;;;;;5059162;28;20235;-79
2023/04/03 08:30:32;;;;;;;5.57;1.50;;;4.80;99.90;;;;;;5056761;28;20233;-80
2023/04/03 08:33:01;;;;;;;4.57;1.73;;;5.00;99.90;;;;;;5057472;28;20667;-79
2023/04/03 08:35:28;;;;;;;4.83;1.60;;;5.20;99.90;;;;;;5054232;28;20207;-79
2023/04/03 08:37:55;;;;;;;5.87;1.37;;;5.00;99.90;;;;;;5054192;28;20210;-79
2023/04/03 08:40:22;;;;;;;3.90;1.20;;;5.20;99.90;;;;;;5072074;28;20206;-80
2023/04/03 08:43:14;;;;;;;1.47;0.80;;;5.20;99.90;;;;;;5073979;28;20229;-79
2023/04/03 08:45:47;;;;;;;2.13;0.80;;;5.00;99.90;;;;;;5072367;28;20326;-78
2023/04/03 08:48:20;;;;;;;1.80;0.67;;;4.80;99.90;;;;;;5073667;28;20224;-80
2023/04/03 08:50:50;;;;;;;3.93;1.53;;;5.10;99.90;;;;;;5071472;28;20214;-80
2023/04/03 08:53:21;;;;;;;2.27;1.13;;;4.90;99.90;;;;;;5060574;28;20228;-79
2023/04/03 08:55:50;;;;;;;4.60;1.47;;;5.50;99.90;;;;;;5061314;28;20199;-79
2023/04/03 08:58:20;;;;;;;2.27;1.30;;;5.00;99.90;;;;;;5056483;28;20214;-80
2023/04/03 09:00:50;;;;;;;3.23;1.53;;;5.00;99.90;;;;;;5058060;28;20199;-80
2023/04/03 09:03:19;;;;;;;3.13;1.00;;;5.40;99.90;;;;;;5056912;28;20313;-81
2023/04/03 09:05:51;;;;;;;5.40;1.33;;;6.10;99.90;;;;;;5075594;28;20210;-81
2023/04/03 09:08:28;;;;;;;2.93;1.00;;;6.30;99.90;;;;;;5072446;28;20194;-80
2023/04/03 09:11:04;;;;;;;6.30;1.30;;;6.30;99.90;;;;;;5079932;28;20317;-80
2023/04/03 09:13:44;;;;;;;2.57;1.20;;;6.40;99.90;;;;;;5064156;28;20753;-80
2023/04/03 09:16:21;;;;;;;3.53;1.37;;;6.70;99.90;;;;;;5058195;28;20264;-80
2023/04/03 09:18:55;;;;;;;2.53;1.17;;;6.80;99.90;;;;;;5056229;28;20202;-81
2023/04/03 09:21:31;;;;;;;1.63;0.70;;;7.00;99.90;;;;;;5055467;28;20202;-81
2023/04/03 09:24:02;;;;;;;5.93;1.53;;;7.40;99.90;;;;;;5057799;28;20229;-79
2023/04/03 09:26:34;;;;;;;4.40;1.30;;;7.20;99.90;;;;;;5055524;28;20226;-79
2023/04/03 09:29:07;;;;;;;0.67;0.53;;;6.90;99.90;;;;;;5056466;28;20207;-78
2023/04/03 09:31:38;;;;;;;3.20;1.10;;;6.90;99.90;;;;;;5060277;28;20231;-80
2023/04/03 09:34:13;;;;;;;2.00;0.67;;;6.80;99.90;;;;;;5060259;28;20289;-80
2023/04/03 09:36:42;;;;;;;2.13;0.87;;;7.30;99.90;;;;;;5059095;28;20585;-80
2023/04/03 09:39:12;;;;;;;2.37;0.73;;;7.00;99.90;;;;;;5070835;28;20203;-79
2023/04/03 09:41:39;;;;;;;0.97;0.77;;;7.20;99.90;;;;;;5066601;28;20586;-79
2023/04/03 09:44:22;;;;;;;1.90;0.80;;;6.20;99.90;;;;;;5062872;28;20223;-80
2023/04/03 09:46:50;;;;;;;5.17;1.17;;;5.90;99.90;;;;;;5061578;28;20589;-80
2023/04/03 09:49:19;;;;;;;1.63;0.60;;;5.70;99.90;;;;;;5071202;28;20264;-81
2023/04/03 09:51:46;;;;;;;2.80;0.90;;;5.70;99.90;;;;;;5081484;28;20226;-79
2023/04/03 09:54:37;;;;;;;2.70;1.07;;;5.60;99.90;;;;;;5080918;28;20637;-80
2023/04/03 09:57:09;;;;;;;4.70;1.53;;;5.70;99.90;;;;;;5081618;28;20211;-80
2023/04/03 09:59:42;;;;;;;2.10;0.90;;;5.40;99.90;;;;;;5082448;28;20198;-80
2023/04/03 10:02:28;;;;;;;3.03;0.83;;;5.50;99.90;;;;;;5082009;28;20237;-80
2023/04/03 10:04:55;;;;;;;1.43;1.00;;;5.60;99.90;;;;;;5081645;28;20206;-79
2023/04/03 10:07:35;;;;;;;1.93;0.53;;;5.70;99.90;;;;;;5081496;28;20210;-80
2023/04/03 10:10:18;;;;;;;2.70;0.80;;;5.80;99.90;;;;;;5080921;28;20210;-80
2023/04/03 10:12:44;;;;;;;2.43;0.90;;;6.00;99.90;;;;;;5081258;28;20245;-78
2023/04/03 10:15:16;;;;;;;3.13;0.93;;;6.60;29.50;;;;;;5080726;28;20216;-80
2023/04/03 10:17:53;;;;;;;1.50;0.63;;;6.60;1.00;;;;;;5081097;28;20252;-79
2023/04/03 10:20:36;;;;;;;2.77;0.43;;;6.50;1.00;;;;;;5066296;28;20233;-80
2023/04/03 10:23:15;;;;;;;5.10;0.97;;;6.20;1.00;;;;;;5059330;28;20223;-81
2023/04/03 10:25:50;;;;;;;4.33;1.03;;;6.70;26.90;;;;;;5059131;28;20202;-80
2023/04/03 10:28:22;;;;;;;2.63;0.80;;;6.30;1.00;;;;;;5058341;28;20205;-80
2023/04/03 10:30:57;;;;;;;2.27;1.10;;;7.30;1.00;;;;;;5058534;28;20226;-79
2023/04/03 10:33:47;;;;;;;1.77;0.60;;;7.20;1.00;;;;;;5058514;28;20614;-79
2023/04/03 10:36:25;;;;;;;1.80;0.63;;;6.80;99.90;;;;;;5061164;28;20250;-80
2023/04/03 10:39:01;;;;;;;1.20;0.70;;;6.60;99.90;;;;;;5059318;28;20213;-80
2023/04/03 10:41:37;;;;;;;1.53;0.70;;;6.60;99.90;;;;;;5059785;28;20206;-80
2023/04/03 10:44:15;;;;;;;2.57;0.50;;;6.60;99.90;;;;;;5058673;28;20233;-80
2023/04/03 10:46:48;;;;;;;4.17;0.83;;;6.40;1.00;;;;;;5058469;28;20207;-79
2023/04/03 10:49:29;;;;;;;3.77;0.80;;;6.10;1.00;;;;;;5059841;28;20203;-80
2023/04/03 10:52:04;;;;;;;2.50;0.63;;;6.10;1.00;;;;;;5059208;28;20207;-78
2023/04/03 10:54:37;;;;;;;2.93;0.87;;;6.20;1.00;;;;;;5058207;28;20227;-80
2023/04/03 10:57:07;;;;;;;0.83;0.77;;;6.10;1.00;;;;;;5059789;28;20214;-80
2023/04/03 10:59:38;;;;;;;4.97;1.07;;;6.00;1.00;;;;;;5059264;28;20207;-80
2023/04/03 11:02:12;;;;;;;3.40;1.00;;;6.00;1.00;;;;;;5058786;28;20213;-80
2023/04/03 11:04:41;;;;;;;3.93;1.00;;;6.10;1.00;;;;;;5057713;28;20206;-80
2023/04/03 11:07:13;;;;;;;2.33;0.60;;;5.90;99.90;;;;;;5058406;28;20203;-81
2023/04/03 11:09:43;;;;;;;0.60;0.53;;;5.90;1.00;;;;;;5059156;28;20214;-80
2023/04/03 11:12:15;;;;;;;2.00;1.00;;;6.10;99.90;;;;;;5058919;28;20591;-79
2023/04/03 11:14:42;;;;;;;3.57;1.00;;;6.00;99.90;;;;;;5057771;28;20195;-81
2023/04/03 11:17:24;;;;;;;6.00;1.43;;;6.20;99.90;;;;;;5058717;28;20195;-78
2023/04/03 11:20:00;;;;;;;6.77;1.20;;;6.00;48.30;;;;;;5058830;28;20214;-79
2023/04/03 11:22:31;;;;;;;2.33;1.00;;;5.90;1.00;;;;;;5058818;28;20226;-79
2023/04/03 11:25:04;;;;;;;1.47;0.77;;;6.00;1.00;;;;;;5058972;28;20253;-80
2023/04/03 11:27:38;;;;;;;4.00;0.93;;;5.90;1.00;;;;;;5059550;28;20203;-80
2023/04/03 11:30:08;;;;;;;1.60;0.83;;;6.10;1.00;;;;;;5059249;28;20219;-79
2023/04/03 11:33:09;;;;;;;3.43;0.83;;;6.30;57.30;;;;;;5058556;28;20215;-79
2023/04/03 11:35:37;;;;;;;1.67;0.60;;;6.30;1.00;;;;;;5053074;28;20206;-80
2023/04/03 11:38:06;;;;;;;3.80;0.90;;;6.30;1.00;;;;;;5076302;28;20571;-80
2023/04/03 11:40:35;;;;;;;1.57;1.07;;;6.40;1.00;;;;;;5057656;28;20207;-79
2023/04/03 11:43:08;;;;;;;2.17;0.50;;;6.50;1.00;;;;;;5068571;28;20248;-80
2023/04/03 11:45:38;;;;;;;1.57;0.83;;;6.40;1.00;;;;;;5078091;28;20249;-79
2023/04/03 11:48:07;;;;;;;1.70;0.93;;;6.30;1.00;;;;;;5067102;28;20752;-78
2023/04/03 11:50:46;;;;;;;2.10;1.17;;;6.50;1.00;;;;;;5055779;28;20631;-78
2023/04/03 11:53:35;;;;;;;3.43;1.53;;;6.50;1.00;;;;;;5057852;28;20223;-79
2023/04/03 11:56:04;;;;;;;3.03;1.00;;;6.50;1.00;;;;;;5078232;28;20194;-78
2023/04/03 11:58:33;;;;;;;4.07;1.00;;;6.90;1.00;;;;;;5057873;28;20252;-79
2023/04/03 12:01:11;;;;;;;1.53;1.00;;;7.40;1.00;;;;;;5043089;28;20200;-79
2023/04/03 12:04:07;;;;;;;1.07;0.50;;;7.40;1.00;;;;;;5038383;28;20227;-78
2023/04/03 12:07:05;;;;;;;3.60;1.10;;;7.10;1.00;;;;;;5046092;28;20662;-78
2023/04/03 12:09:58;;;;;;;0.83;0.50;;;6.60;99.90;;;;;;5031757;28;20628;-79
2023/04/03 12:12:40;;;;;;;4.13;0.90;;;6.50;99.90;;;;;;5034817;28;20597;-79
2023/04/03 12:15:24;;;;;;;2.80;0.57;;;6.50;99.90;;;;;;5043656;28;20277;-79
2023/04/03 12:17:51;;;;;;;1.67;0.87;;;6.40;31.60;;;;;;5054007;28;20210;-79
2023/04/03 12:20:56;;;;;;;2.40;0.60;;;6.60;99.90;;;;;;5052570;28;20203;-78
2023/04/03 12:23:34;;;;;;;3.37;0.90;;;7.20;99.90;;;;;;5055793;28;20234;-80
2023/04/03 12:26:06;;;;;;;2.93;0.93;;;7.80;1.00;;;;;;5040647;28;20569;-79
2023/04/03 12:28:40;;;;;;;2.27;0.77;;;8.40;1.00;;;;;;5039250;28;20208;-80
2023/04/03 12:31:10;;;;;;;1.07;0.60;;;8.00;99.90;;;;;;5039427;28;20231;-80
2023/04/03 12:33:57;;;;;;;1.57;0.70;;;7.60;50.10;;;;;;5040578;28;20242;-80
2023/04/03 12:36:31;;;;;;;1.93;0.73;;;7.60;99.90;;;;;;5059792;28;20257;-79
2023/04/03 12:39:21;;;;;;;0.90;0.70;;;7.00;1.00;;;;;;5058785;28;20218;-80
2023/04/03 12:42:01;;;;;;;1.67;0.80;;;7.00;1.00;;;;;;5059166;28;20780;-79
2023/04/03 12:44:48;;;;;;;3.20;0.87;;;7.00;1.00;;;;;;5039935;28;20224;-79
2023/04/03 12:47:27;;;;;;;1.13;0.70;;;6.80;1.00;;;;;;5039027;28;20711;-79
2023/04/03 12:49:55;;;;;;;0.80;0.73;;;7.40;1.00;;;;;;5038688;28;20235;-81
2023/04/03 12:52:33;;;;;;;0.70;0.60;;;7.60;1.00;;;;;;5037855;28;20254;-79
2023/04/03 12:55:03;;;;;;;1.30;0.60;;;7.30;1.00;;;;;;5044260;28;20206;-80
2023/04/03 12:57:33;;;;;;;3.53;1.10;;;7.00;1.00;;;;;;5037112;28;20708;-78
2023/04/03 13:00:00;;;;;;;3.63;0.90;;;7.00;1.00;;;;;;5037560;28;20203;-78
2023/04/03 13:02:29;;;;;;;1.23;0.70;;;7.10;1.00;;;;;;5038309;28;20658;-80
2023/04/03 13:04:58;;;;;;;4.07;0.90;;;6.80;1.00;;;;;;5035529;28;20200;-79
2023/04/03 13:07:31;;;;;;;1.90;0.90;;;7.00;1.00;;;;;;5037186;28;20290;-81
2023/04/03 13:10:17;;;;;;;3.20;0.87;;;7.70;1.00;;;;;;5037536;28;20235;-81